createdAt,value
2017-09-17T00:01:09.156Z,10.66
2017-09-17T00:03:38.232Z,10.47
2017-09-17T00:06:07.277Z,10.48
2017-09-17T00:08:37.125Z,10.46
2017-09-17T00:11:06.174Z,10.39
2017-09-17T00:13:35.231Z,10.36
2017-09-17T00:16:04.296Z,10.30
2017-09-17T00:18:33.366Z,10.29
2017-09-17T00:21:02.429Z,10.32
2017-09-17T00:23:31.485Z,10.31
2017-09-17T00:26:01.373Z,10.26
2017-09-17T00:28:31.196Z,10.25
2017-09-17T00:31:01.008Z,10.23
2017-09-17T00:33:30.852Z,10.14
2017-09-17T00:35:59.914Z,10.18
2017-09-17T00:38:30.025Z,10.17
2017-09-17T00:41:01.592Z,10.19
2017-09-17T00:43:32.112Z,10.12
2017-09-17T00:46:01.496Z,10.01
2017-09-17T00:48:30.605Z,9.96
2017-09-17T00:51:00.440Z,9.99
2017-09-17T00:53:29.479Z,10.03
2017-09-17T00:55:59.314Z,9.97
2017-09-17T00:58:28.423Z,9.94
2017-09-17T01:00:57.499Z,9.92
2017-09-17T01:03:27.364Z,9.88
2017-09-17T01:05:56.494Z,9.89
2017-09-17T01:08:25.540Z,9.94
2017-09-17T01:10:55.355Z,9.96
2017-09-17T01:13:25.239Z,10.03
2017-09-17T01:15:54.268Z,10.09
2017-09-17T01:18:23.319Z,10.10
2017-09-17T01:20:52.367Z,10.09
2017-09-17T01:23:21.431Z,10.11
2017-09-17T01:25:51.243Z,10.16
2017-09-17T01:28:21.059Z,10.21
2017-09-17T01:30:50.952Z,10.23
2017-09-17T01:33:19.984Z,10.27
2017-09-17T01:35:49.061Z,10.32
2017-09-17T01:38:19.056Z,10.37
2017-09-17T01:40:48.126Z,10.37
2017-09-17T01:43:17.223Z,10.38
2017-09-17T01:45:46.277Z,10.38
2017-09-17T01:48:16.108Z,10.43
2017-09-17T01:50:45.471Z,10.48
2017-09-17T01:53:14.492Z,10.49
2017-09-17T01:55:43.567Z,10.50
2017-09-17T01:58:12.583Z,10.51
2017-09-17T02:00:41.656Z,10.53
2017-09-17T02:03:10.715Z,10.52
2017-09-17T02:05:39.746Z,10.50
2017-09-17T02:08:09.805Z,10.46
2017-09-17T02:10:38.855Z,10.47
2017-09-17T02:13:08.777Z,10.46
2017-09-17T02:15:38.602Z,10.46
2017-09-17T02:18:08.454Z,10.47
2017-09-17T02:20:37.497Z,10.46
2017-09-17T02:23:07.338Z,10.43
2017-09-17T02:25:36.384Z,10.45
2017-09-17T02:28:05.438Z,10.44
2017-09-17T02:30:34.490Z,10.41
2017-09-17T02:33:03.532Z,10.41
2017-09-17T02:35:32.573Z,10.40
2017-09-17T02:38:01.645Z,10.43
2017-09-17T02:40:30.747Z,10.40
2017-09-17T02:42:59.804Z,10.43
2017-09-17T02:45:28.851Z,10.40
2017-09-17T02:47:57.924Z,10.44
2017-09-17T02:50:26.996Z,10.48
2017-09-17T02:52:56.034Z,10.49
2017-09-17T02:55:25.069Z,10.53
2017-09-17T02:57:54.135Z,10.51
2017-09-17T03:00:23.194Z,10.50
2017-09-17T03:02:52.225Z,10.54
2017-09-17T03:05:22.038Z,10.51
2017-09-17T03:07:51.103Z,10.53
2017-09-17T03:10:20.131Z,10.52
2017-09-17T03:12:49.935Z,10.54
2017-09-17T03:15:19.769Z,10.55
2017-09-17T03:17:49.623Z,10.58
2017-09-17T03:20:18.684Z,10.63
2017-09-17T03:22:48.055Z,10.66
2017-09-17T03:25:17.066Z,10.67
2017-09-17T03:27:46.888Z,10.72
2017-09-17T03:30:15.956Z,10.76
2017-09-17T03:32:45.376Z,10.77
2017-09-17T03:35:15.209Z,10.80
2017-09-17T03:37:44.281Z,10.80
2017-09-17T03:40:13.330Z,10.76
2017-09-17T03:42:42.378Z,10.81
2017-09-17T03:45:12.193Z,10.84
2017-09-17T03:47:42.013Z,10.85
2017-09-17T03:50:11.048Z,10.85
2017-09-17T03:52:40.096Z,10.83
2017-09-17T03:55:09.915Z,10.80
2017-09-17T03:57:39.709Z,10.76
2017-09-17T04:00:09.590Z,10.72
2017-09-17T04:02:38.636Z,10.67
2017-09-17T04:05:07.702Z,10.62
2017-09-17T04:07:36.745Z,10.61
2017-09-17T04:10:05.780Z,10.59
2017-09-17T04:12:34.860Z,10.58
2017-09-17T04:15:03.884Z,10.59
2017-09-17T04:17:34.448Z,10.57
2017-09-17T04:20:04.267Z,10.62
2017-09-17T04:22:33.713Z,10.60
2017-09-17T04:25:03.576Z,10.67
2017-09-17T04:27:32.951Z,10.68
2017-09-17T04:30:02.253Z,10.70
2017-09-17T04:32:32.085Z,10.68
2017-09-17T04:35:01.154Z,10.68
2017-09-17T04:37:30.188Z,10.66
2017-09-17T04:39:59.253Z,10.64
2017-09-17T04:42:28.291Z,10.61
2017-09-17T04:44:57.331Z,10.58
2017-09-17T04:47:26.404Z,10.54
2017-09-17T04:49:55.477Z,10.47
2017-09-17T04:52:24.523Z,10.46
2017-09-17T04:54:53.592Z,10.42
2017-09-17T04:57:22.713Z,10.36
2017-09-17T04:59:51.791Z,10.33
2017-09-17T05:02:20.823Z,10.31
2017-09-17T05:04:49.900Z,10.30
2017-09-17T05:07:19.689Z,10.31
2017-09-17T05:09:49.541Z,10.33
2017-09-17T05:12:19.351Z,10.33
2017-09-17T05:14:49.268Z,10.35
2017-09-17T05:17:19.088Z,10.40
2017-09-17T05:19:48.132Z,10.39
2017-09-17T05:22:17.179Z,10.44
2017-09-17T05:24:46.258Z,10.43
2017-09-17T05:27:16.086Z,10.45
2017-09-17T05:29:45.908Z,10.48
2017-09-17T05:32:14.932Z,10.43
2017-09-17T05:34:44.001Z,10.48
2017-09-17T05:37:13.162Z,10.45
2017-09-17T05:39:42.485Z,10.45
2017-09-17T05:42:11.494Z,10.41
2017-09-17T05:44:40.537Z,10.38
2017-09-17T05:47:09.595Z,10.35
2017-09-17T05:49:38.645Z,10.37
2017-09-17T05:52:08.450Z,10.40
2017-09-17T05:54:38.276Z,10.45
2017-09-17T05:57:08.078Z,10.49
2017-09-17T05:59:37.932Z,10.56
2017-09-17T06:02:06.960Z,10.63
2017-09-17T06:04:36.005Z,10.67
2017-09-17T06:07:05.087Z,10.73
2017-09-17T06:09:34.341Z,10.78
2017-09-17T06:12:03.415Z,10.80
2017-09-17T06:14:32.577Z,10.83
2017-09-17T06:17:02.456Z,10.88
2017-09-17T06:19:31.511Z,10.87
2017-09-17T06:22:00.575Z,10.88
2017-09-17T06:24:30.449Z,10.91
2017-09-17T06:26:59.492Z,10.94
2017-09-17T06:29:29.308Z,10.95
2017-09-17T06:31:59.231Z,10.96
2017-09-17T06:34:29.080Z,11.00
2017-09-17T06:36:58.255Z,11.04
2017-09-17T06:39:29.475Z,11.08
2017-09-17T06:41:59.618Z,11.14
2017-09-17T06:44:28.661Z,11.19
2017-09-17T06:46:57.708Z,11.26
2017-09-17T06:49:26.775Z,11.32
2017-09-17T06:51:56.605Z,11.39
2017-09-17T06:54:25.677Z,11.45
2017-09-17T06:56:54.721Z,11.49
2017-09-17T06:59:23.772Z,11.58
2017-09-17T07:01:53.625Z,11.62
2017-09-17T07:04:22.676Z,11.69
2017-09-17T07:06:52.517Z,11.75
2017-09-17T07:09:21.627Z,11.80
2017-09-17T07:11:50.659Z,11.81
2017-09-17T07:14:19.715Z,11.82
2017-09-17T07:16:48.805Z,11.87
2017-09-17T07:19:17.845Z,11.91
2017-09-17T07:21:46.922Z,12.00
2017-09-17T07:24:15.987Z,12.08
2017-09-17T07:26:45.024Z,12.16
2017-09-17T07:29:14.131Z,12.22
2017-09-17T07:31:43.185Z,12.24
2017-09-17T07:34:12.267Z,12.26
2017-09-17T07:36:41.760Z,12.28
2017-09-17T07:39:10.833Z,12.32
2017-09-17T07:41:39.892Z,12.38
2017-09-17T07:44:08.993Z,12.45
2017-09-17T07:46:38.797Z,12.58
2017-09-17T07:49:07.888Z,12.67
2017-09-17T07:51:37.300Z,12.81
2017-09-17T07:54:07.384Z,12.89
2017-09-17T07:56:36.469Z,12.97
2017-09-17T07:59:06.322Z,13.08
2017-09-17T08:01:35.364Z,13.21
2017-09-17T08:04:05.440Z,13.25
2017-09-17T08:06:39.159Z,13.30
2017-09-17T08:09:08.220Z,13.38
2017-09-17T08:11:37.294Z,13.43
2017-09-17T08:14:07.124Z,13.44
2017-09-17T08:16:36.163Z,13.50
2017-09-17T08:19:05.260Z,13.53
2017-09-17T08:21:34.330Z,13.50
2017-09-17T08:24:03.392Z,13.53
2017-09-17T08:26:32.780Z,13.58
2017-09-17T08:29:01.845Z,13.63
2017-09-17T08:31:30.908Z,13.68
2017-09-17T08:34:00.025Z,13.73
2017-09-17T08:36:29.124Z,13.87
2017-09-17T08:38:58.187Z,14.00
2017-09-17T08:41:27.265Z,14.13
2017-09-17T08:43:56.386Z,14.20
2017-09-17T08:46:25.445Z,14.25
2017-09-17T08:48:54.529Z,14.24
2017-09-17T08:51:24.361Z,14.18
2017-09-17T08:53:53.425Z,14.19
2017-09-17T08:56:22.495Z,14.22
2017-09-17T08:58:51.525Z,14.24
2017-09-17T09:01:21.504Z,14.25
2017-09-17T09:03:50.595Z,14.32
2017-09-17T09:06:19.642Z,14.35
2017-09-17T09:08:49.486Z,14.35
2017-09-17T09:11:18.573Z,14.38
2017-09-17T09:13:48.436Z,14.47
2017-09-17T09:16:17.529Z,14.53
2017-09-17T09:18:46.639Z,14.46
2017-09-17T09:21:17.193Z,14.44
2017-09-17T09:23:47.049Z,14.52
2017-09-17T09:26:16.105Z,14.60
2017-09-17T09:28:45.182Z,14.65
2017-09-17T09:31:14.228Z,14.64
2017-09-17T09:33:43.291Z,14.76
2017-09-17T09:36:12.416Z,14.85
2017-09-17T09:38:41.466Z,14.90
2017-09-17T09:41:11.276Z,14.93
2017-09-17T09:43:41.142Z,14.90
2017-09-17T09:46:10.209Z,14.94
2017-09-17T09:48:39.294Z,15.05
2017-09-17T09:51:08.470Z,15.23
2017-09-17T09:53:37.525Z,15.44
2017-09-17T09:56:06.581Z,15.73
2017-09-17T09:58:36.409Z,15.97
2017-09-17T10:01:05.485Z,16.19
2017-09-17T10:03:35.298Z,16.43
2017-09-17T10:06:05.161Z,16.71
2017-09-17T10:08:34.232Z,16.90
2017-09-17T10:11:03.277Z,17.02
2017-09-17T10:13:32.404Z,17.12
2017-09-17T10:16:02.224Z,17.27
2017-09-17T10:18:31.292Z,17.39
2017-09-17T10:21:01.138Z,17.53
2017-09-17T10:23:30.206Z,17.71
2017-09-17T10:26:00.023Z,17.84
2017-09-17T10:28:30.029Z,17.88
2017-09-17T10:30:59.091Z,17.95
2017-09-17T10:33:28.191Z,17.90
2017-09-17T10:35:57.251Z,17.87
2017-09-17T10:38:26.356Z,17.87
2017-09-17T10:40:55.396Z,17.79
2017-09-17T10:43:24.490Z,17.67
2017-09-17T10:45:53.569Z,17.64
2017-09-17T10:48:22.665Z,17.63
2017-09-17T10:50:51.851Z,17.52
2017-09-17T10:53:20.884Z,17.46
2017-09-17T10:55:50.701Z,17.52
2017-09-17T10:58:20.525Z,17.65
2017-09-17T11:00:50.368Z,17.77
2017-09-17T11:03:19.431Z,17.64
2017-09-17T11:05:49.244Z,17.60
2017-09-17T11:08:19.093Z,17.53
2017-09-17T11:10:49.940Z,17.56
2017-09-17T11:13:19.014Z,17.53
2017-09-17T11:15:48.125Z,17.59
2017-09-17T11:18:17.166Z,17.47
2017-09-17T11:20:46.256Z,17.34
2017-09-17T11:23:15.334Z,17.17
2017-09-17T11:25:44.407Z,17.17
2017-09-17T11:28:13.484Z,17.08
2017-09-17T11:30:43.302Z,16.98
2017-09-17T11:33:12.360Z,16.84
2017-09-17T11:35:42.328Z,16.76
2017-09-17T11:38:11.389Z,16.82
2017-09-17T11:40:40.439Z,16.91
2017-09-17T11:43:09.506Z,16.94
2017-09-17T11:45:38.592Z,16.86
2017-09-17T11:48:07.679Z,16.93
2017-09-17T11:50:36.722Z,17.02
2017-09-17T11:53:07.280Z,17.08
2017-09-17T11:55:37.125Z,17.15
2017-09-17T11:58:06.185Z,17.12
2017-09-17T12:00:36.011Z,17.05
2017-09-17T12:03:05.885Z,17.05
2017-09-17T12:05:34.953Z,17.09
2017-09-17T12:08:04.047Z,17.02
2017-09-17T12:10:33.112Z,16.92
2017-09-17T12:13:02.245Z,16.74
2017-09-17T12:15:31.331Z,16.77
2017-09-17T12:18:00.355Z,16.78
2017-09-17T12:20:29.400Z,16.85
2017-09-17T12:22:58.494Z,16.88
2017-09-17T12:25:27.575Z,16.96
2017-09-17T12:27:56.645Z,17.00
2017-09-17T12:30:25.708Z,16.96
2017-09-17T12:32:54.785Z,16.94
2017-09-17T12:35:23.860Z,16.94
2017-09-17T12:37:52.884Z,16.94
2017-09-17T12:40:21.920Z,16.88
2017-09-17T12:42:51.025Z,16.82
2017-09-17T12:45:20.093Z,16.83
2017-09-17T12:47:49.145Z,16.78
2017-09-17T12:50:18.317Z,16.69
2017-09-17T12:52:47.390Z,16.64
2017-09-17T12:55:16.460Z,16.73
2017-09-17T12:57:45.527Z,16.73
2017-09-17T13:00:14.721Z,16.76
2017-09-17T13:02:43.773Z,16.85
2017-09-17T13:05:12.896Z,16.83
2017-09-17T13:07:41.946Z,16.89
2017-09-17T13:10:10.992Z,16.93
2017-09-17T13:12:40.827Z,16.94
2017-09-17T13:15:09.880Z,17.07
2017-09-17T13:17:38.943Z,17.15
2017-09-17T13:20:08.010Z,17.20
2017-09-17T13:22:37.175Z,17.29
2017-09-17T13:25:06.260Z,17.31
2017-09-17T13:27:35.656Z,17.35
2017-09-17T13:30:04.716Z,17.40
2017-09-17T13:32:33.776Z,17.45
2017-09-17T13:35:02.823Z,17.47
2017-09-17T13:37:31.902Z,17.50
2017-09-17T13:40:01.012Z,17.50
2017-09-17T13:42:30.360Z,17.62
2017-09-17T13:44:59.449Z,17.73
2017-09-17T13:47:28.534Z,17.75
2017-09-17T13:49:57.559Z,17.79
2017-09-17T13:52:27.454Z,17.70
2017-09-17T13:54:56.548Z,17.62
2017-09-17T13:57:27.144Z,17.58
2017-09-17T13:59:57.029Z,17.46
2017-09-17T14:05:34.631Z,17.08
2017-09-17T14:08:09.980Z,16.97
2017-09-17T14:10:41.417Z,16.92
2017-09-17T14:13:11.217Z,16.85
2017-09-17T14:15:41.048Z,16.82
2017-09-17T14:18:10.134Z,16.72
2017-09-17T14:20:39.964Z,16.71
2017-09-17T14:23:09.817Z,16.77
2017-09-17T14:25:38.878Z,16.80
2017-09-17T14:28:07.953Z,16.87
2017-09-17T14:30:37.810Z,16.90
2017-09-17T14:33:06.861Z,16.96
2017-09-17T14:35:36.675Z,17.01
2017-09-17T14:38:06.532Z,17.04
2017-09-17T14:40:35.761Z,17.06
2017-09-17T14:43:05.617Z,17.08
2017-09-17T14:45:34.709Z,17.12
2017-09-17T14:48:03.901Z,17.22
2017-09-17T14:50:32.957Z,17.31
2017-09-17T14:53:02.046Z,17.42
2017-09-17T14:55:31.115Z,17.44
2017-09-17T14:58:00.166Z,17.35
2017-09-17T15:00:29.988Z,17.30
2017-09-17T15:02:59.826Z,17.27
2017-09-17T15:05:28.876Z,17.24
2017-09-17T15:07:57.951Z,17.19
2017-09-17T15:10:27.027Z,17.11
2017-09-17T15:12:56.225Z,17.08
2017-09-17T15:15:25.265Z,16.97
2017-09-17T15:17:55.087Z,16.97
2017-09-17T15:20:24.920Z,16.98
2017-09-17T15:22:53.985Z,16.97
2017-09-17T15:25:23.826Z,16.93
2017-09-17T15:27:53.623Z,16.88
2017-09-17T15:30:23.492Z,16.89
2017-09-17T15:32:53.511Z,16.85
2017-09-17T15:35:22.593Z,16.86
2017-09-17T15:37:52.619Z,16.86
2017-09-17T15:40:21.713Z,16.84
2017-09-17T15:42:52.381Z,16.76
2017-09-17T15:45:21.674Z,16.71
2017-09-17T15:47:51.882Z,16.66
2017-09-17T15:50:20.913Z,16.65
2017-09-17T15:52:50.760Z,16.62
2017-09-17T15:55:19.845Z,16.57
2017-09-17T15:57:49.684Z,16.59
2017-09-17T16:00:18.779Z,16.53
2017-09-17T16:02:47.858Z,16.50
2017-09-17T16:05:17.341Z,16.46
2017-09-17T16:07:46.389Z,16.34
2017-09-17T16:10:15.472Z,16.29
2017-09-17T16:12:44.545Z,16.26
2017-09-17T16:15:13.675Z,16.23
2017-09-17T16:17:42.792Z,16.15
2017-09-17T16:20:12.668Z,16.12
2017-09-17T16:22:42.405Z,16.07
2017-09-17T16:25:12.954Z,16.01
2017-09-17T16:27:42.075Z,15.98
2017-09-17T16:30:11.960Z,15.91
2017-09-17T16:32:40.994Z,15.82
2017-09-17T16:35:10.356Z,15.76
2017-09-17T16:37:39.424Z,15.68
2017-09-17T16:40:08.520Z,15.60
2017-09-17T16:42:37.570Z,15.49
2017-09-17T16:45:06.696Z,15.38
2017-09-17T16:47:35.762Z,15.35
2017-09-17T16:50:04.877Z,15.26
2017-09-17T16:52:33.991Z,14.99
2017-09-17T16:55:03.069Z,14.76
2017-09-17T16:57:32.124Z,14.60
2017-09-17T17:00:01.983Z,14.42
2017-09-17T17:02:31.063Z,14.21
2017-09-17T17:05:00.863Z,13.92
2017-09-17T17:07:31.020Z,13.78
2017-09-17T17:10:00.095Z,13.54
2017-09-17T17:12:29.203Z,13.32
2017-09-17T17:14:58.553Z,13.23
2017-09-17T17:17:27.643Z,13.06
2017-09-17T17:19:56.736Z,12.88
2017-09-17T17:22:25.834Z,12.71
2017-09-17T17:24:54.942Z,12.54
2017-09-17T17:27:24.014Z,12.57
2017-09-17T17:29:53.080Z,12.66
2017-09-17T17:32:22.263Z,12.72
2017-09-17T17:34:51.346Z,12.70
2017-09-17T17:37:20.402Z,12.76
2017-09-17T17:39:49.451Z,12.86
2017-09-17T17:42:18.513Z,12.92
2017-09-17T17:44:48.338Z,12.95
2017-09-17T17:47:18.194Z,13.03
2017-09-17T17:49:47.244Z,13.05
2017-09-17T17:52:16.295Z,13.10
2017-09-17T17:54:45.383Z,13.17
2017-09-17T17:57:14.411Z,13.21
2017-09-17T17:59:44.235Z,13.21
2017-09-17T18:02:14.114Z,13.21
2017-09-17T18:04:43.193Z,13.20
2017-09-17T18:07:12.223Z,13.18
2017-09-17T18:09:42.072Z,13.12
2017-09-17T18:12:11.336Z,13.09
2017-09-17T18:14:40.431Z,12.99
2017-09-17T18:17:09.477Z,12.96
2017-09-17T18:19:38.563Z,12.96
2017-09-17T18:22:07.618Z,12.94
2017-09-17T18:24:37.466Z,12.94
2017-09-17T18:27:06.584Z,12.94
2017-09-17T18:29:35.687Z,12.90
2017-09-17T18:32:05.840Z,12.88
2017-09-17T18:34:35.674Z,12.82
2017-09-17T18:37:04.730Z,12.81
2017-09-17T18:39:33.785Z,12.86
2017-09-17T18:42:02.894Z,12.83
2017-09-17T18:44:31.981Z,12.83
2017-09-17T18:47:01.154Z,12.85
2017-09-17T18:49:30.972Z,12.87
2017-09-17T18:52:00.053Z,12.87
2017-09-17T18:54:29.906Z,12.83
2017-09-17T18:56:58.986Z,12.82
2017-09-17T18:59:28.035Z,12.80
2017-09-17T19:01:57.083Z,12.73
2017-09-17T19:04:26.170Z,12.67
2017-09-17T19:06:55.459Z,12.67
2017-09-17T19:09:24.804Z,12.60
2017-09-17T19:11:53.866Z,12.52
2017-09-17T19:14:22.957Z,12.41
2017-09-17T19:16:52.809Z,12.30
2017-09-17T19:19:21.937Z,12.35
2017-09-17T19:21:51.031Z,12.38
2017-09-17T19:24:23.186Z,12.33
2017-09-17T19:26:52.330Z,12.33
2017-09-17T19:29:22.210Z,12.28
2017-09-17T19:31:51.315Z,12.28
2017-09-17T19:34:21.170Z,12.37
2017-09-17T19:36:50.419Z,12.42
2017-09-17T19:39:19.475Z,12.42
2017-09-17T19:41:48.534Z,12.38
2017-09-17T19:44:18.372Z,12.34
2017-09-17T19:46:47.431Z,12.30
2017-09-17T19:49:17.503Z,12.26
2017-09-17T19:51:46.586Z,12.22
2017-09-17T19:54:15.673Z,12.23
2017-09-17T19:56:44.778Z,12.28
2017-09-17T19:59:13.907Z,12.26
2017-09-17T20:01:42.958Z,12.18
2017-09-17T20:04:12.064Z,12.19
2017-09-17T20:06:41.184Z,12.21
2017-09-17T20:09:10.253Z,12.15
2017-09-17T20:11:39.356Z,12.13
2017-09-17T20:14:08.432Z,12.13
2017-09-17T20:16:37.581Z,12.14
2017-09-17T20:19:06.679Z,12.09
2017-09-17T20:21:35.744Z,12.08
2017-09-17T20:24:04.840Z,12.07
2017-09-17T20:26:33.895Z,12.04
2017-09-17T20:29:03.756Z,11.99
2017-09-17T20:31:32.844Z,11.98
2017-09-17T20:34:01.930Z,11.98
2017-09-17T20:36:31.050Z,11.99
2017-09-17T20:39:00.074Z,12.02
2017-09-17T20:41:29.952Z,12.02
2017-09-17T20:43:59.011Z,12.02
2017-09-17T20:46:28.096Z,12.00
2017-09-17T20:48:57.178Z,11.99
2017-09-17T20:51:27.040Z,11.95
2017-09-17T20:53:56.087Z,11.93
2017-09-17T20:56:25.905Z,11.94
2017-09-17T20:58:54.972Z,11.92
2017-09-17T21:01:24.034Z,11.90
2017-09-17T21:03:53.105Z,11.90
2017-09-17T21:06:22.173Z,11.88
2017-09-17T21:08:51.989Z,11.86
2017-09-17T21:11:21.824Z,11.83
2017-09-17T21:13:51.654Z,11.79
2017-09-17T21:16:20.716Z,11.76
2017-09-17T21:18:49.788Z,11.74
2017-09-17T21:21:18.885Z,11.71
2017-09-17T21:23:47.945Z,11.67
2017-09-17T21:26:17.012Z,11.64
2017-09-17T21:28:46.842Z,11.60
2017-09-17T21:31:15.901Z,11.54
2017-09-17T21:33:45.776Z,11.48
2017-09-17T21:36:14.827Z,11.50
2017-09-17T21:38:43.860Z,11.43
2017-09-17T21:41:12.965Z,11.38
2017-09-17T21:43:42.094Z,11.36
2017-09-17T21:46:11.968Z,11.35
2017-09-17T21:48:41.040Z,11.34
2017-09-17T21:51:10.106Z,11.29
2017-09-17T21:53:39.946Z,11.28
2017-09-17T21:56:08.980Z,11.24
2017-09-17T21:58:38.864Z,11.24
2017-09-17T22:01:08.004Z,11.24
2017-09-17T22:03:37.096Z,11.24
2017-09-17T22:06:06.219Z,11.24
2017-09-17T22:08:36.126Z,11.20
2017-09-17T22:11:05.961Z,11.18
2017-09-17T22:13:35.055Z,11.19
2017-09-17T22:16:04.121Z,11.21
2017-09-17T22:18:33.193Z,11.24
2017-09-17T22:21:02.532Z,11.23
2017-09-17T22:23:31.553Z,11.25
2017-09-17T22:26:02.304Z,11.26
2017-09-17T22:28:31.376Z,11.29
2017-09-17T22:31:00.448Z,11.23
2017-09-17T22:33:29.508Z,11.20
2017-09-17T22:35:58.570Z,11.18
2017-09-17T22:38:27.644Z,11.20
2017-09-17T22:40:56.695Z,11.23
2017-09-17T22:43:25.771Z,11.22
2017-09-17T22:45:54.828Z,11.19
2017-09-17T22:48:24.639Z,11.16
2017-09-17T22:50:53.672Z,11.12
2017-09-17T22:53:22.746Z,11.13
2017-09-17T22:55:51.825Z,11.16
2017-09-17T22:58:21.648Z,11.15
2017-09-17T23:00:50.704Z,11.14
2017-09-17T23:03:20.519Z,11.13
2017-09-17T23:05:49.581Z,11.14
2017-09-17T23:08:18.635Z,11.14
2017-09-17T23:10:48.452Z,11.14
2017-09-17T23:13:17.728Z,11.13
2017-09-17T23:15:47.571Z,11.14
2017-09-17T23:18:16.612Z,11.15
2017-09-17T23:20:45.652Z,11.14
2017-09-17T23:23:15.025Z,11.14
2017-09-17T23:25:44.080Z,11.15
2017-09-17T23:28:14.185Z,11.11
2017-09-17T23:30:43.200Z,11.12
2017-09-17T23:33:12.293Z,11.09
2017-09-17T23:35:41.365Z,11.08
2017-09-17T23:38:10.388Z,11.05
2017-09-17T23:40:39.596Z,11.02
2017-09-17T23:43:08.657Z,11.00
2017-09-17T23:45:37.734Z,10.94
2017-09-17T23:48:06.765Z,10.97
2017-09-17T23:50:36.605Z,10.94
2017-09-17T23:53:05.624Z,10.91
2017-09-17T23:55:35.461Z,10.90
2017-09-17T23:58:04.488Z,10.90
